NCAR-RAP Real-Time Weather Data

Output produced by METARs form (14 October 2019  22:39 UTC)
found at http://weather.rap.ucar.edu/surface/
 
KCHA 142153Z 00000KT 10SM SCT180 BKN250 24/02 A3008 RMK AO2 SLP182 T02440022 $
KCHA 142053Z 00000KT 10SM SCT180 BKN250 24/01 A3008 RMK AO2 SLP181 T02440011 56015 $
KCHA 141953Z 26003KT 10SM SCT180 BKN250 24/01 A3009 RMK AO2 SLP184 T02390006 $
KCHA 141853Z 01004KT 10SM SCT180 BKN250 24/02 A3010 RMK AO2 SLP187 T02390022 $
KCHA 141753Z 05003KT 10SM SCT200 22/04 A3012 RMK AO2 SLP197 T02220039 10228 20072 58017 $
KCHA 141653Z 34007KT 10SM SCT200 21/05 A3015 RMK AO2 SLP204 T02110050 $
KCHA 141553Z 04006KT 10SM SCT200 19/06 A3017 RMK AO2 SLP211 T01940056 $
KCHA 141453Z 01008KT 10SM SCT200 17/08 A3017 RMK AO2 SLP215 T01720083 50011 $
KCHA 141353Z 35003KT 10SM CLR 14/09 A3018 RMK AO2 SLP215 T01390089 $
KCHA 141253Z 00000KT 10SM CLR 10/08 A3017 RMK AO2 SLP213 T01000078 $
KCHA 141153Z 00000KT 10SM R02/3000VP6000FT FEW012 07/07 A3014 RMK AO2 SLP204 T00720067 10117 20072 51014 $
KCHA 141053Z 00000KT 10SM CLR 08/07 A3013 RMK AO2 SLP200 T00780067 $
KCHA 140953Z 00000KT 10SM CLR 08/08 A3012 RMK AO2 SLP195 T00830078 $
KCHA 140853Z AUTO 00000KT 10SM CLR 09/08 A3010 RMK AO2 SLP189 T00940083 51007 $
KCHA 140753Z AUTO 00000KT 10SM CLR 11/09 A3009 RMK AO2 SLP185 T01060089 $
KCHA 140653Z AUTO 00000KT 10SM CLR 11/09 A3009 RMK AO2 SLP186 T01060094 $
KCHA 140553Z AUTO 00000KT 10SM CLR 11/10 A3008 RMK AO2 SLP181 T01110100 10194 20111 51004 $
KCHA 140453Z AUTO 00000KT 10SM CLR 14/10 A3007 RMK AO2 SLP179 T01390100 402390094 $
KCHA 140353Z 15006KT 10SM FEW200 15/11 A3008 RMK AO2 SLP182 LAST T01500111 $
KCHA 140253Z 00000KT 10SM FEW090 SCT200 16/12 A3007 RMK AO2 SLP178 T01560117 51012 $
KCHA 140153Z 20005KT 10SM FEW090 SCT200 16/12 A3006 RMK AO2 SLP176 T01610117 $
KCHA 140053Z 16003KT 10SM SCT090 SCT150 SCT200 17/11 A3005 RMK AO2 SLP172 T01720111 $
KCHA 132353Z 20007KT 10SM SCT085 SCT150 BKN200 19/11 A3003 RMK AO2 SLP166 T01940111 10239 20194 53006 $
KCHA 132253Z 17005KT 10SM SCT085 BKN150 BKN200 20/10 A3001 RMK AO2 SLP160 T02000100 $
KCHA 132153Z 18005KT 10SM SCT085 BKN150 BKN200 22/06 A3002 RMK AO2 SLP162 T02170056 $
KCHA 132053Z 17009KT 10SM FEW055 SCT085 BKN150 BKN190 22/11 A3001 RMK AO2 SLP160 T02170106 55006 $
KCHA 131953Z 21006KT 10SM FEW055 BKN150 BKN200 23/04 A3000 RMK AO2 SLP154 T02330039 $
KCHA 131853Z VRB03KT 10SM SCT055 BKN150 BKN250 23/07 A3001 RMK AO2 SLP157 T02280067 $
KCHA 131753Z 00000KT 10SM FEW055 SCT150 BKN250 23/06 A3003 RMK AO2 SLP165 T02280061 10228 20106 58021 $
KCHA 131653Z 00000KT 10SM FEW050 FEW100 SCT250 21/08 A3006 RMK AO2 SLP175 T02110083 $
KCHA 131553Z 00000KT 10SM SCT050 SCT100 18/09 A3008 RMK AO2 SLP181 T01830089 $
KCHA 131453Z 00000KT 10SM SCT050 SCT100 16/08 A3010 RMK AO2 SLP188 T01560083 50003 $
KCHA 131353Z 00000KT 10SM SCT050 SCT100 14/08 A3010 RMK AO2 SLP191 T01390078 $
KCHA 131253Z 00000KT 10SM BKN048 12/07 A3010 RMK AO2 SLP189 T01170072 $
KCHA 131153Z 00000KT 10SM SCT048 BKN100 11/08 A3009 RMK AO2 SLP186 T01060078 10122 20094 51015 $
KCHA 131053Z 20003KT 10SM SCT043 SCT100 10/07 A3008 RMK AO2 SLP181 T01000072 $
KCHA 130953Z 00000KT 10SM SCT100 11/07 A3006 RMK AO2 SLP176 T01060067 $
KCHA 130853Z AUTO 33003KT 10SM CLR 09/07 A3004 RMK AO2 SLP170 T00940072 58005 $
KCHA 130753Z AUTO 00000KT 10SM CLR 10/07 A3005 RMK AO2 SLP174 T01000072 $
KCHA 130653Z AUTO 03004KT 10SM CLR 12/07 A3006 RMK AO2 SLP174 T01170067 $
KCHA 130553Z AUTO 02005KT 10SM CLR 12/07 A3006 RMK AO2 SLP176 T01220067 10183 20111 56006 $
KCHA 130453Z AUTO 36005KT 10SM CLR 12/07 A3007 RMK AO2 SLP179 T01170072 402280111 $
KCHA 130353Z 33003KT 10SM FEW200 12/08 A3008 RMK AO2 SLP182 LAST T01220083 $
KCHA 130253Z 05004KT 10SM FEW200 14/08 A3008 RMK AO2 SLP184 T01390083 50004 $
KCHA 130153Z 03005KT 10SM FEW250 15/07 A3008 RMK AO2 SLP184 T01500072 $
KCHA 130053Z 02007KT 10SM FEW250 17/06 A3008 RMK AO2 SLP181 T01670056
KCHA 122353Z 02007KT 10SM FEW060 FEW250 18/03 A3007 RMK AO2 SLP179 T01830033 10222 20172 55002
KCHA 122253Z 36007KT 10SM FEW060 FEW250 20/06 A3006 RMK AO2 SLP176 T02000061